sensor_id;sensor_type;location;lat;lon;timestamp;P1;durP1;ratioP1;P2;durP2;ratioP2
23432;SDS011;41331;45.412;10.992;2023-02-28T00:01:33;8.65;;;5.10;;
23432;SDS011;41331;45.412;10.992;2023-02-28T00:04:02;8.65;;;4.80;;
23432;SDS011;41331;45.412;10.992;2023-02-28T00:06:30;7.22;;;4.65;;
23432;SDS011;41331;45.412;10.992;2023-02-28T00:08:57;8.55;;;4.90;;
23432;SDS011;41331;45.412;10.992;2023-02-28T00:11:24;8.60;;;4.65;;
23432;SDS011;41331;45.412;10.992;2023-02-28T00:13:52;7.53;;;4.70;;
23432;SDS011;41331;45.412;10.992;2023-02-28T00:16:20;10.07;;;4.20;;
23432;SDS011;41331;45.412;10.992;2023-02-28T00:18:50;8.25;;;4.55;;
23432;SDS011;41331;45.412;10.992;2023-02-28T00:21:18;8.02;;;4.53;;
23432;SDS011;41331;45.412;10.992;2023-02-28T00:23:46;8.35;;;4.82;;
23432;SDS011;41331;45.412;10.992;2023-02-28T00:26:14;9.02;;;4.90;;
23432;SDS011;41331;45.412;10.992;2023-02-28T00:28:44;9.40;;;5.38;;
23432;SDS011;41331;45.412;10.992;2023-02-28T00:31:12;8.57;;;4.85;;
23432;SDS011;41331;45.412;10.992;2023-02-28T00:33:39;10.30;;;4.63;;
23432;SDS011;41331;45.412;10.992;2023-02-28T00:36:08;7.07;;;4.10;;
23432;SDS011;41331;45.412;10.992;2023-02-28T00:38:38;8.95;;;4.25;;
23432;SDS011;41331;45.412;10.992;2023-02-28T00:41:06;8.00;;;4.25;;
23432;SDS011;41331;45.412;10.992;2023-02-28T00:43:35;6.30;;;4.25;;
23432;SDS011;41331;45.412;10.992;2023-02-28T00:46:04;7.57;;;4.53;;
23432;SDS011;41331;45.412;10.992;2023-02-28T00:48:32;8.98;;;4.75;;
23432;SDS011;41331;45.412;10.992;2023-02-28T00:51:00;7.28;;;4.40;;
23432;SDS011;41331;45.412;10.992;2023-02-28T00:53:28;6.35;;;4.20;;
23432;SDS011;41331;45.412;10.992;2023-02-28T00:55:57;6.68;;;4.30;;
23432;SDS011;41331;45.412;10.992;2023-02-28T00:58:26;8.90;;;4.47;;
23432;SDS011;41331;45.412;10.992;2023-02-28T01:00:53;7.10;;;4.00;;
23432;SDS011;41331;45.412;10.992;2023-02-28T01:03:21;6.85;;;4.25;;
23432;SDS011;41331;45.412;10.992;2023-02-28T01:05:50;7.38;;;4.28;;
23432;SDS011;41331;45.412;10.992;2023-02-28T01:08:17;8.40;;;4.53;;
23432;SDS011;41331;45.412;10.992;2023-02-28T01:10:45;7.65;;;4.75;;
23432;SDS011;41331;45.412;10.992;2023-02-28T01:13:12;6.95;;;4.45;;
23432;SDS011;41331;45.412;10.992;2023-02-28T01:15:40;9.90;;;4.50;;
23432;SDS011;41331;45.412;10.992;2023-02-28T01:18:12;8.18;;;4.70;;
23432;SDS011;41331;45.412;10.992;2023-02-28T01:20:39;7.28;;;4.50;;
23432;SDS011;41331;45.412;10.992;2023-02-28T01:23:08;7.95;;;4.75;;
23432;SDS011;41331;45.412;10.992;2023-02-28T01:25:36;8.77;;;4.95;;
23432;SDS011;41331;45.412;10.992;2023-02-28T01:28:04;6.72;;;4.10;;
23432;SDS011;41331;45.412;10.992;2023-02-28T01:30:33;8.57;;;4.53;;
23432;SDS011;41331;45.412;10.992;2023-02-28T01:33:01;9.05;;;4.55;;
23432;SDS011;41331;45.412;10.992;2023-02-28T01:35:28;6.95;;;4.40;;
23432;SDS011;41331;45.412;10.992;2023-02-28T01:37:59;8.73;;;5.00;;
23432;SDS011;41331;45.412;10.992;2023-02-28T01:40:41;7.45;;;4.47;;
23432;SDS011;41331;45.412;10.992;2023-02-28T01:43:16;8.05;;;5.20;;
23432;SDS011;41331;45.412;10.992;2023-02-28T01:45:57;8.90;;;4.72;;
23432;SDS011;41331;45.412;10.992;2023-02-28T01:48:29;8.68;;;4.47;;
23432;SDS011;41331;45.412;10.992;2023-02-28T01:51:00;8.40;;;4.55;;
23432;SDS011;41331;45.412;10.992;2023-02-28T01:53:39;7.97;;;4.78;;
23432;SDS011;41331;45.412;10.992;2023-02-28T01:56:11;7.72;;;4.63;;
23432;SDS011;41331;45.412;10.992;2023-02-28T01:58:49;7.03;;;4.43;;
23432;SDS011;41331;45.412;10.992;2023-02-28T02:01:20;9.75;;;4.90;;
23432;SDS011;41331;45.412;10.992;2023-02-28T02:03:56;7.15;;;4.68;;
23432;SDS011;41331;45.412;10.992;2023-02-28T02:06:27;6.88;;;4.55;;
23432;SDS011;41331;45.412;10.992;2023-02-28T02:08:57;6.88;;;4.75;;
23432;SDS011;41331;45.412;10.992;2023-02-28T02:11:25;6.75;;;4.10;;
23432;SDS011;41331;45.412;10.992;2023-02-28T02:22:34;7.57;;;4.35;;
23432;SDS011;41331;45.412;10.992;2023-02-28T02:25:11;7.15;;;4.43;;
23432;SDS011;41331;45.412;10.992;2023-02-28T02:39:04;7.68;;;4.45;;
23432;SDS011;41331;45.412;10.992;2023-02-28T02:41:41;6.75;;;4.43;;
23432;SDS011;41331;45.412;10.992;2023-02-28T02:44:19;6.50;;;4.40;;
23432;SDS011;41331;45.412;10.992;2023-02-28T02:46:47;8.00;;;4.45;;
23432;SDS011;41331;45.412;10.992;2023-02-28T02:49:24;7.75;;;4.50;;
23432;SDS011;41331;45.412;10.992;2023-02-28T02:51:55;6.82;;;4.45;;
23432;SDS011;41331;45.412;10.992;2023-02-28T02:54:28;7.13;;;4.43;;
23432;SDS011;41331;45.412;10.992;2023-02-28T02:56:58;6.82;;;4.15;;
23432;SDS011;41331;45.412;10.992;2023-02-28T02:59:31;6.63;;;4.28;;
23432;SDS011;41331;45.412;10.992;2023-02-28T03:02:01;8.85;;;4.55;;
23432;SDS011;41331;45.412;10.992;2023-02-28T03:04:35;8.32;;;4.20;;
23432;SDS011;41331;45.412;10.992;2023-02-28T03:07:10;6.25;;;4.22;;
23432;SDS011;41331;45.412;10.992;2023-02-28T03:09:38;7.82;;;4.13;;
23432;SDS011;41331;45.412;10.992;2023-02-28T03:12:09;7.03;;;4.07;;
23432;SDS011;41331;45.412;10.992;2023-02-28T03:18:07;8.25;;;4.47;;
23432;SDS011;41331;45.412;10.992;2023-02-28T03:20:41;7.75;;;4.47;;
23432;SDS011;41331;45.412;10.992;2023-02-28T03:23:19;7.35;;;4.22;;
23432;SDS011;41331;45.412;10.992;2023-02-28T03:25:59;8.38;;;4.50;;
23432;SDS011;41331;45.412;10.992;2023-02-28T03:28:41;8.60;;;4.30;;
23432;SDS011;41331;45.412;10.992;2023-02-28T03:31:22;7.80;;;4.53;;
23432;SDS011;41331;45.412;10.992;2023-02-28T03:33:53;7.75;;;4.40;;
23432;SDS011;41331;45.412;10.992;2023-02-28T03:36:26;7.65;;;4.50;;
23432;SDS011;41331;45.412;10.992;2023-02-28T03:39:01;6.60;;;4.57;;
23432;SDS011;41331;45.412;10.992;2023-02-28T03:41:34;6.57;;;4.38;;
23432;SDS011;41331;45.412;10.992;2023-02-28T03:44:09;9.23;;;4.30;;
23432;SDS011;41331;45.412;10.992;2023-02-28T03:46:44;7.20;;;4.82;;
23432;SDS011;41331;45.412;10.992;2023-02-28T03:49:19;8.75;;;4.75;;
23432;SDS011;41331;45.412;10.992;2023-02-28T03:51:50;7.25;;;4.43;;
23432;SDS011;41331;45.412;10.992;2023-02-28T03:54:31;8.43;;;4.85;;
23432;SDS011;41331;45.412;10.992;2023-02-28T03:59:57;7.00;;;4.60;;
23432;SDS011;41331;45.412;10.992;2023-02-28T04:02:38;7.68;;;4.57;;
23432;SDS011;41331;45.412;10.992;2023-02-28T04:05:09;7.30;;;4.65;;
23432;SDS011;41331;45.412;10.992;2023-02-28T04:07:36;8.93;;;4.80;;
23432;SDS011;41331;45.412;10.992;2023-02-28T04:10:04;7.80;;;4.75;;
23432;SDS011;41331;45.412;10.992;2023-02-28T04:12:32;7.50;;;4.82;;
23432;SDS011;41331;45.412;10.992;2023-02-28T04:14:59;7.40;;;4.20;;
23432;SDS011;41331;45.412;10.992;2023-02-28T04:17:27;8.48;;;4.97;;
23432;SDS011;41331;45.412;10.992;2023-02-28T04:19:54;7.38;;;4.80;;
23432;SDS011;41331;45.412;10.992;2023-02-28T04:22:24;6.97;;;4.75;;
23432;SDS011;41331;45.412;10.992;2023-02-28T04:24:54;7.72;;;4.90;;
23432;SDS011;41331;45.412;10.992;2023-02-28T04:27:22;8.80;;;4.97;;
23432;SDS011;41331;45.412;10.992;2023-02-28T04:29:49;8.82;;;5.15;;
23432;SDS011;41331;45.412;10.992;2023-02-28T04:32:16;8.50;;;4.90;;
23432;SDS011;41331;45.412;10.992;2023-02-28T04:34:44;6.82;;;4.88;;
23432;SDS011;41331;45.412;10.992;2023-02-28T04:37:11;7.90;;;5.25;;
23432;SDS011;41331;45.412;10.992;2023-02-28T04:39:40;7.65;;;4.90;;
23432;SDS011;41331;45.412;10.992;2023-02-28T04:42:09;8.57;;;4.72;;
23432;SDS011;41331;45.412;10.992;2023-02-28T04:44:37;8.65;;;5.25;;
23432;SDS011;41331;45.412;10.992;2023-02-28T04:47:04;8.45;;;4.75;;
23432;SDS011;41331;45.412;10.992;2023-02-28T04:49:32;9.27;;;5.18;;
23432;SDS011;41331;45.412;10.992;2023-02-28T04:51:59;8.55;;;4.82;;
23432;SDS011;41331;45.412;10.992;2023-02-28T04:54:27;7.38;;;5.20;;
23432;SDS011;41331;45.412;10.992;2023-02-28T04:56:55;8.10;;;5.30;;
23432;SDS011;41331;45.412;10.992;2023-02-28T04:59:23;9.15;;;5.13;;
23432;SDS011;41331;45.412;10.992;2023-02-28T05:01:50;6.78;;;4.75;;
23432;SDS011;41331;45.412;10.992;2023-02-28T05:04:17;9.30;;;5.15;;
23432;SDS011;41331;45.412;10.992;2023-02-28T05:06:45;9.48;;;5.50;;
23432;SDS011;41331;45.412;10.992;2023-02-28T05:09:12;8.13;;;4.90;;
23432;SDS011;41331;45.412;10.992;2023-02-28T05:11:40;8.02;;;4.70;;
23432;SDS011;41331;45.412;10.992;2023-02-28T05:14:11;9.15;;;5.05;;
23432;SDS011;41331;45.412;10.992;2023-02-28T05:16:41;7.45;;;4.32;;
23432;SDS011;41331;45.412;10.992;2023-02-28T05:19:08;7.78;;;4.45;;
23432;SDS011;41331;45.412;10.992;2023-02-28T05:21:37;6.82;;;4.70;;
23432;SDS011;41331;45.412;10.992;2023-02-28T05:24:08;7.80;;;4.60;;
23432;SDS011;41331;45.412;10.992;2023-02-28T05:26:39;9.07;;;4.87;;
23432;SDS011;41331;45.412;10.992;2023-02-28T05:29:08;7.13;;;4.70;;
23432;SDS011;41331;45.412;10.992;2023-02-28T05:31:36;8.00;;;4.70;;
23432;SDS011;41331;45.412;10.992;2023-02-28T05:34:04;7.55;;;4.93;;
23432;SDS011;41331;45.412;10.992;2023-02-28T05:36:32;8.27;;;5.10;;
23432;SDS011;41331;45.412;10.992;2023-02-28T05:39:00;8.68;;;5.07;;
23432;SDS011;41331;45.412;10.992;2023-02-28T05:41:27;8.32;;;5.07;;
23432;SDS011;41331;45.412;10.992;2023-02-28T05:43:55;7.25;;;4.28;;
23432;SDS011;41331;45.412;10.992;2023-02-28T05:46:24;9.70;;;4.85;;
23432;SDS011;41331;45.412;10.992;2023-02-28T05:48:52;9.63;;;5.07;;
23432;SDS011;41331;45.412;10.992;2023-02-28T05:51:19;8.10;;;4.90;;
23432;SDS011;41331;45.412;10.992;2023-02-28T05:53:47;7.15;;;4.70;;
23432;SDS011;41331;45.412;10.992;2023-02-28T05:56:16;7.97;;;4.47;;
23432;SDS011;41331;45.412;10.992;2023-02-28T05:58:43;8.98;;;5.00;;
23432;SDS011;41331;45.412;10.992;2023-02-28T06:03:58;9.05;;;4.55;;
23432;SDS011;41331;45.412;10.992;2023-02-28T06:06:27;8.65;;;5.40;;
23432;SDS011;41331;45.412;10.992;2023-02-28T06:08:55;8.52;;;4.78;;
23432;SDS011;41331;45.412;10.992;2023-02-28T06:11:23;9.27;;;4.82;;
23432;SDS011;41331;45.412;10.992;2023-02-28T06:13:58;7.93;;;4.88;;
23432;SDS011;41331;45.412;10.992;2023-02-28T06:16:27;9.45;;;5.25;;
23432;SDS011;41331;45.412;10.992;2023-02-28T06:18:59;8.25;;;5.15;;
23432;SDS011;41331;45.412;10.992;2023-02-28T06:21:29;8.65;;;5.13;;
23432;SDS011;41331;45.412;10.992;2023-02-28T06:23:57;8.05;;;5.22;;
23432;SDS011;41331;45.412;10.992;2023-02-28T06:26:26;8.68;;;5.57;;
23432;SDS011;41331;45.412;10.992;2023-02-28T06:28:54;8.70;;;5.10;;
23432;SDS011;41331;45.412;10.992;2023-02-28T06:31:22;10.90;;;4.95;;
23432;SDS011;41331;45.412;10.992;2023-02-28T06:33:50;12.05;;;5.65;;
23432;SDS011;41331;45.412;10.992;2023-02-28T06:36:17;10.95;;;5.60;;
23432;SDS011;41331;45.412;10.992;2023-02-28T06:38:45;10.60;;;5.35;;
23432;SDS011;41331;45.412;10.992;2023-02-28T06:41:12;9.40;;;5.72;;
23432;SDS011;41331;45.412;10.992;2023-02-28T06:43:40;11.93;;;5.43;;
23432;SDS011;41331;45.412;10.992;2023-02-28T06:46:10;8.85;;;5.20;;
23432;SDS011;41331;45.412;10.992;2023-02-28T06:48:40;9.25;;;5.30;;
23432;SDS011;41331;45.412;10.992;2023-02-28T06:51:11;9.60;;;5.30;;
23432;SDS011;41331;45.412;10.992;2023-02-28T06:53:41;8.80;;;5.30;;
23432;SDS011;41331;45.412;10.992;2023-02-28T06:56:10;10.40;;;5.80;;
23432;SDS011;41331;45.412;10.992;2023-02-28T06:58:40;8.57;;;5.22;;
23432;SDS011;41331;45.412;10.992;2023-02-28T07:01:08;7.53;;;5.05;;
23432;SDS011;41331;45.412;10.992;2023-02-28T07:03:35;8.80;;;5.22;;
23432;SDS011;41331;45.412;10.992;2023-02-28T07:06:04;8.32;;;5.22;;
23432;SDS011;41331;45.412;10.992;2023-02-28T07:08:33;9.50;;;5.00;;
23432;SDS011;41331;45.412;10.992;2023-02-28T07:11:01;10.38;;;5.20;;
23432;SDS011;41331;45.412;10.992;2023-02-28T07:13:29;9.20;;;5.43;;
23432;SDS011;41331;45.412;10.992;2023-02-28T07:15:58;8.77;;;5.20;;
23432;SDS011;41331;45.412;10.992;2023-02-28T07:20:56;17.13;;;5.32;;
23432;SDS011;41331;45.412;10.992;2023-02-28T07:23:24;11.15;;;5.07;;
23432;SDS011;41331;45.412;10.992;2023-02-28T07:25:51;9.63;;;5.50;;
23432;SDS011;41331;45.412;10.992;2023-02-28T07:28:20;9.90;;;5.80;;
23432;SDS011;41331;45.412;10.992;2023-02-28T07:30:47;9.10;;;5.40;;
23432;SDS011;41331;45.412;10.992;2023-02-28T07:33:15;10.18;;;5.55;;
23432;SDS011;41331;45.412;10.992;2023-02-28T07:35:43;9.93;;;5.20;;
23432;SDS011;41331;45.412;10.992;2023-02-28T07:38:10;9.23;;;5.38;;
23432;SDS011;41331;45.412;10.992;2023-02-28T07:40:39;10.40;;;5.60;;
23432;SDS011;41331;45.412;10.992;2023-02-28T07:43:07;9.63;;;4.93;;
23432;SDS011;41331;45.412;10.992;2023-02-28T07:45:34;9.88;;;5.45;;
23432;SDS011;41331;45.412;10.992;2023-02-28T07:48:04;10.02;;;5.78;;
23432;SDS011;41331;45.412;10.992;2023-02-28T07:50:32;11.18;;;5.32;;
23432;SDS011;41331;45.412;10.992;2023-02-28T07:52:59;9.68;;;5.40;;
23432;SDS011;41331;45.412;10.992;2023-02-28T07:55:26;8.88;;;5.30;;
23432;SDS011;41331;45.412;10.992;2023-02-28T07:57:54;10.98;;;5.22;;
23432;SDS011;41331;45.412;10.992;2023-02-28T08:00:22;10.05;;;5.38;;
23432;SDS011;41331;45.412;10.992;2023-02-28T08:02:50;8.57;;;5.25;;
23432;SDS011;41331;45.412;10.992;2023-02-28T08:05:20;8.23;;;5.03;;
23432;SDS011;41331;45.412;10.992;2023-02-28T08:07:49;10.05;;;5.03;;
23432;SDS011;41331;45.412;10.992;2023-02-28T08:10:16;9.25;;;5.20;;
23432;SDS011;41331;45.412;10.992;2023-02-28T08:12:44;11.68;;;5.70;;
23432;SDS011;41331;45.412;10.992;2023-02-28T08:15:13;8.27;;;5.20;;
23432;SDS011;41331;45.412;10.992;2023-02-28T08:17:41;8.68;;;5.25;;
23432;SDS011;41331;45.412;10.992;2023-02-28T08:20:08;8.35;;;5.60;;
23432;SDS011;41331;45.412;10.992;2023-02-28T08:22:37;9.52;;;5.13;;
23432;SDS011;41331;45.412;10.992;2023-02-28T08:25:04;11.43;;;5.25;;
23432;SDS011;41331;45.412;10.992;2023-02-28T08:27:35;9.82;;;5.45;;
23432;SDS011;41331;45.412;10.992;2023-02-28T08:30:03;8.68;;;5.50;;
23432;SDS011;41331;45.412;10.992;2023-02-28T08:32:32;10.63;;;5.72;;
23432;SDS011;41331;45.412;10.992;2023-02-28T08:35:00;9.50;;;5.45;;
23432;SDS011;41331;45.412;10.992;2023-02-28T08:37:30;9.95;;;5.47;;
23432;SDS011;41331;45.412;10.992;2023-02-28T08:39:58;9.30;;;4.97;;
23432;SDS011;41331;45.412;10.992;2023-02-28T08:42:25;7.97;;;5.20;;
23432;SDS011;41331;45.412;10.992;2023-02-28T08:44:52;7.93;;;5.05;;
23432;SDS011;41331;45.412;10.992;2023-02-28T08:47:20;8.85;;;5.40;;
23432;SDS011;41331;45.412;10.992;2023-02-28T08:49:47;7.97;;;5.10;;
23432;SDS011;41331;45.412;10.992;2023-02-28T08:52:15;8.73;;;4.90;;
23432;SDS011;41331;45.412;10.992;2023-02-28T08:54:42;7.22;;;4.45;;
23432;SDS011;41331;45.412;10.992;2023-02-28T08:57:09;9.48;;;5.32;;
23432;SDS011;41331;45.412;10.992;2023-02-28T08:59:37;8.20;;;4.93;;
23432;SDS011;41331;45.412;10.992;2023-02-28T09:02:04;8.38;;;5.43;;
23432;SDS011;41331;45.412;10.992;2023-02-28T09:04:33;8.02;;;5.43;;
23432;SDS011;41331;45.412;10.992;2023-02-28T09:07:01;8.75;;;5.70;;
23432;SDS011;41331;45.412;10.992;2023-02-28T09:09:28;8.73;;;5.50;;
23432;SDS011;41331;45.412;10.992;2023-02-28T09:11:56;9.70;;;5.70;;
23432;SDS011;41331;45.412;10.992;2023-02-28T09:14:24;9.52;;;5.55;;
23432;SDS011;41331;45.412;10.992;2023-02-28T09:16:52;9.88;;;5.75;;
23432;SDS011;41331;45.412;10.992;2023-02-28T09:19:19;10.52;;;5.85;;
23432;SDS011;41331;45.412;10.992;2023-02-28T09:21:46;8.27;;;5.32;;
23432;SDS011;41331;45.412;10.992;2023-02-28T09:24:16;8.07;;;5.35;;
23432;SDS011;41331;45.412;10.992;2023-02-28T09:26:45;7.88;;;4.80;;
23432;SDS011;41331;45.412;10.992;2023-02-28T09:29:31;8.25;;;4.75;;
23432;SDS011;41331;45.412;10.992;2023-02-28T09:31:59;8.82;;;4.80;;
23432;SDS011;41331;45.412;10.992;2023-02-28T09:34:28;8.45;;;5.05;;
23432;SDS011;41331;45.412;10.992;2023-02-28T09:36:57;8.40;;;4.97;;
23432;SDS011;41331;45.412;10.992;2023-02-28T09:39:25;7.70;;;5.13;;
23432;SDS011;41331;45.412;10.992;2023-02-28T09:41:54;7.15;;;4.10;;
23432;SDS011;41331;45.412;10.992;2023-02-28T09:44:26;6.95;;;4.55;;
23432;SDS011;41331;45.412;10.992;2023-02-28T09:46:59;9.00;;;4.65;;
23432;SDS011;41331;45.412;10.992;2023-02-28T09:49:34;6.22;;;4.47;;
23432;SDS011;41331;45.412;10.992;2023-02-28T09:52:10;7.07;;;4.45;;
23432;SDS011;41331;45.412;10.992;2023-02-28T09:54:43;9.32;;;4.22;;
23432;SDS011;41331;45.412;10.992;2023-02-28T09:59:58;7.38;;;4.03;;
23432;SDS011;41331;45.412;10.992;2023-02-28T10:10:27;8.32;;;4.75;;
23432;SDS011;41331;45.412;10.992;2023-02-28T10:13:00;8.95;;;4.68;;
23432;SDS011;41331;45.412;10.992;2023-02-28T10:15:32;8.30;;;5.18;;
23432;SDS011;41331;45.412;10.992;2023-02-28T10:18:03;8.48;;;5.32;;
23432;SDS011;41331;45.412;10.992;2023-02-28T10:20:37;7.90;;;5.20;;
23432;SDS011;41331;45.412;10.992;2023-02-28T10:28:43;7.95;;;5.55;;
23432;SDS011;41331;45.412;10.992;2023-02-28T10:31:17;9.13;;;5.43;;
23432;SDS011;41331;45.412;10.992;2023-02-28T10:33:46;9.57;;;5.65;;
23432;SDS011;41331;45.412;10.992;2023-02-28T10:36:15;8.63;;;5.55;;
23432;SDS011;41331;45.412;10.992;2023-02-28T10:41:15;9.32;;;5.30;;
23432;SDS011;41331;45.412;10.992;2023-02-28T10:43:53;9.85;;;5.60;;
23432;SDS011;41331;45.412;10.992;2023-02-28T10:46:41;8.10;;;5.20;;
23432;SDS011;41331;45.412;10.992;2023-02-28T10:49:27;10.48;;;5.47;;
23432;SDS011;41331;45.412;10.992;2023-02-28T10:51:57;8.80;;;5.97;;
23432;SDS011;41331;45.412;10.992;2023-02-28T10:54:36;10.15;;;5.55;;
23432;SDS011;41331;45.412;10.992;2023-02-28T10:57:09;10.02;;;5.85;;
23432;SDS011;41331;45.412;10.992;2023-02-28T10:59:45;11.10;;;5.82;;
23432;SDS011;41331;45.412;10.992;2023-02-28T11:02:31;9.65;;;5.28;;
23432;SDS011;41331;45.412;10.992;2023-02-28T11:08:10;11.98;;;5.82;;
23432;SDS011;41331;45.412;10.992;2023-02-28T11:10:44;8.45;;;5.65;;
23432;SDS011;41331;45.412;10.992;2023-02-28T11:13:17;8.82;;;5.68;;
23432;SDS011;41331;45.412;10.992;2023-02-28T11:15:51;10.73;;;6.45;;
23432;SDS011;41331;45.412;10.992;2023-02-28T11:18:23;8.55;;;6.20;;
23432;SDS011;41331;45.412;10.992;2023-02-28T11:20:56;8.20;;;5.20;;
23432;SDS011;41331;45.412;10.992;2023-02-28T11:23:26;10.35;;;5.72;;
23432;SDS011;41331;45.412;10.992;2023-02-28T11:25:58;11.85;;;5.82;;
23432;SDS011;41331;45.412;10.992;2023-02-28T11:28:29;10.90;;;6.00;;
23432;SDS011;41331;45.412;10.992;2023-02-28T11:31:02;11.57;;;5.68;;
23432;SDS011;41331;45.412;10.992;2023-02-28T11:33:40;8.63;;;5.03;;
23432;SDS011;41331;45.412;10.992;2023-02-28T11:38:56;9.85;;;5.53;;
23432;SDS011;41331;45.412;10.992;2023-02-28T11:55:16;11.45;;;5.30;;
23432;SDS011;41331;45.412;10.992;2023-02-28T12:12:20;9.93;;;6.13;;
23432;SDS011;41331;45.412;10.992;2023-02-28T12:17:58;9.77;;;6.07;;
23432;SDS011;41331;45.412;10.992;2023-02-28T12:26:47;9.95;;;6.05;;
23432;SDS011;41331;45.412;10.992;2023-02-28T12:29:24;10.68;;;6.18;;
23432;SDS011;41331;45.412;10.992;2023-02-28T12:32:09;10.02;;;6.10;;
23432;SDS011;41331;45.412;10.992;2023-02-28T12:34:43;11.30;;;6.38;;
23432;SDS011;41331;45.412;10.992;2023-02-28T12:37:19;9.95;;;6.47;;
23432;SDS011;41331;45.412;10.992;2023-02-28T12:39:54;11.07;;;6.38;;
23432;SDS011;41331;45.412;10.992;2023-02-28T12:42:30;9.48;;;6.70;;
23432;SDS011;41331;45.412;10.992;2023-02-28T12:45:03;11.90;;;6.80;;
23432;SDS011;41331;45.412;10.992;2023-02-28T12:47:38;9.88;;;6.60;;
23432;SDS011;41331;45.412;10.992;2023-02-28T12:50:08;11.60;;;7.15;;
23432;SDS011;41331;45.412;10.992;2023-02-28T12:52:47;11.07;;;6.93;;
23432;SDS011;41331;45.412;10.992;2023-02-28T12:55:30;12.07;;;6.82;;
23432;SDS011;41331;45.412;10.992;2023-02-28T12:58:13;10.55;;;6.60;;
23432;SDS011;41331;45.412;10.992;2023-02-28T13:11:56;10.45;;;6.80;;
23432;SDS011;41331;45.412;10.992;2023-02-28T13:17:16;11.18;;;7.47;;
23432;SDS011;41331;45.412;10.992;2023-02-28T13:22:35;12.57;;;7.60;;
23432;SDS011;41331;45.412;10.992;2023-02-28T13:27:52;10.98;;;7.13;;
23432;SDS011;41331;45.412;10.992;2023-02-28T13:36:08;12.02;;;7.55;;
23432;SDS011;41331;45.412;10.992;2023-02-28T13:38:46;12.10;;;7.35;;
23432;SDS011;41331;45.412;10.992;2023-02-28T13:41:40;12.95;;;7.47;;
23432;SDS011;41331;45.412;10.992;2023-02-28T13:44:06;11.98;;;7.07;;
23432;SDS011;41331;45.412;10.992;2023-02-28T14:05:34;11.98;;;6.78;;
23432;SDS011;41331;45.412;10.992;2023-02-28T14:08:20;13.43;;;6.25;;
23432;SDS011;41331;45.412;10.992;2023-02-28T14:10:50;12.77;;;6.60;;
23432;SDS011;41331;45.412;10.992;2023-02-28T14:16:25;11.75;;;6.60;;
23432;SDS011;41331;45.412;10.992;2023-02-28T14:18:57;13.02;;;7.15;;
23432;SDS011;41331;45.412;10.992;2023-02-28T14:21:32;13.52;;;6.72;;
23432;SDS011;41331;45.412;10.992;2023-02-28T14:32:30;10.35;;;6.45;;
23432;SDS011;41331;45.412;10.992;2023-02-28T14:37:38;14.00;;;7.00;;
23432;SDS011;41331;45.412;10.992;2023-02-28T14:40:24;10.73;;;6.80;;
23432;SDS011;41331;45.412;10.992;2023-02-28T14:42:58;13.20;;;7.32;;
23432;SDS011;41331;45.412;10.992;2023-02-28T14:45:31;13.35;;;6.43;;
23432;SDS011;41331;45.412;10.992;2023-02-28T14:48:01;12.13;;;6.63;;
23432;SDS011;41331;45.412;10.992;2023-02-28T14:50:30;12.63;;;6.63;;
23432;SDS011;41331;45.412;10.992;2023-02-28T14:53:00;11.18;;;6.82;;
23432;SDS011;41331;45.412;10.992;2023-02-28T14:55:30;11.07;;;6.20;;
23432;SDS011;41331;45.412;10.992;2023-02-28T14:58:01;13.40;;;7.15;;
23432;SDS011;41331;45.412;10.992;2023-02-28T15:00:32;11.98;;;6.82;;
23432;SDS011;41331;45.412;10.992;2023-02-28T15:03:17;11.02;;;6.85;;
23432;SDS011;41331;45.412;10.992;2023-02-28T15:05:59;14.68;;;6.90;;
23432;SDS011;41331;45.412;10.992;2023-02-28T15:08:32;10.00;;;6.72;;
23432;SDS011;41331;45.412;10.992;2023-02-28T15:11:27;13.13;;;6.68;;
23432;SDS011;41331;45.412;10.992;2023-02-28T15:13:51;11.90;;;6.72;;
23432;SDS011;41331;45.412;10.992;2023-02-28T15:16:31;12.93;;;7.15;;
23432;SDS011;41331;45.412;10.992;2023-02-28T15:21:41;13.40;;;8.05;;
23432;SDS011;41331;45.412;10.992;2023-02-28T15:24:19;11.00;;;6.95;;
23432;SDS011;41331;45.412;10.992;2023-02-28T15:26:55;14.05;;;6.72;;
23432;SDS011;41331;45.412;10.992;2023-02-28T15:29:30;14.38;;;6.80;;
23432;SDS011;41331;45.412;10.992;2023-02-28T15:32:05;14.65;;;7.20;;
23432;SDS011;41331;45.412;10.992;2023-02-28T15:34:42;12.02;;;7.07;;
23432;SDS011;41331;45.412;10.992;2023-02-28T15:39:55;10.68;;;6.72;;
23432;SDS011;41331;45.412;10.992;2023-02-28T15:42:27;11.38;;;6.72;;
23432;SDS011;41331;45.412;10.992;2023-02-28T15:44:55;11.10;;;7.13;;
23432;SDS011;41331;45.412;10.992;2023-02-28T15:47:25;12.02;;;7.20;;
23432;SDS011;41331;45.412;10.992;2023-02-28T15:52:38;13.02;;;7.38;;
23432;SDS011;41331;45.412;10.992;2023-02-28T15:55:20;10.18;;;6.75;;
23432;SDS011;41331;45.412;10.992;2023-02-28T15:57:56;11.18;;;7.40;;
23432;SDS011;41331;45.412;10.992;2023-02-28T16:00:27;13.85;;;7.78;;
23432;SDS011;41331;45.412;10.992;2023-02-28T16:02:56;13.20;;;7.38;;
23432;SDS011;41331;45.412;10.992;2023-02-28T16:05:30;14.13;;;7.78;;
23432;SDS011;41331;45.412;10.992;2023-02-28T16:08:00;15.13;;;7.65;;
23432;SDS011;41331;45.412;10.992;2023-02-28T16:10:37;12.45;;;7.75;;
23432;SDS011;41331;45.412;10.992;2023-02-28T16:13:04;13.32;;;7.07;;
23432;SDS011;41331;45.412;10.992;2023-02-28T16:15:35;14.02;;;7.57;;
23432;SDS011;41331;45.412;10.992;2023-02-28T16:18:10;15.13;;;7.35;;
23432;SDS011;41331;45.412;10.992;2023-02-28T16:20:39;12.27;;;7.55;;
23432;SDS011;41331;45.412;10.992;2023-02-28T16:23:06;11.75;;;7.53;;
23432;SDS011;41331;45.412;10.992;2023-02-28T16:25:36;13.10;;;7.43;;
23432;SDS011;41331;45.412;10.992;2023-02-28T16:28:08;10.50;;;7.07;;
23432;SDS011;41331;45.412;10.992;2023-02-28T16:30:44;11.65;;;7.80;;
23432;SDS011;41331;45.412;10.992;2023-02-28T16:33:12;12.93;;;7.53;;
23432;SDS011;41331;45.412;10.992;2023-02-28T16:35:42;12.60;;;7.93;;
23432;SDS011;41331;45.412;10.992;2023-02-28T16:38:09;11.43;;;6.88;;
23432;SDS011;41331;45.412;10.992;2023-02-28T16:40:36;16.67;;;7.43;;
23432;SDS011;41331;45.412;10.992;2023-02-28T16:43:05;13.00;;;7.22;;
23432;SDS011;41331;45.412;10.992;2023-02-28T16:45:42;12.10;;;6.97;;
23432;SDS011;41331;45.412;10.992;2023-02-28T16:48:11;14.00;;;6.88;;
23432;SDS011;41331;45.412;10.992;2023-02-28T16:50:40;11.80;;;7.45;;
23432;SDS011;41331;45.412;10.992;2023-02-28T16:53:09;12.75;;;7.40;;
23432;SDS011;41331;45.412;10.992;2023-02-28T16:55:36;11.07;;;7.25;;
23432;SDS011;41331;45.412;10.992;2023-02-28T16:58:04;10.88;;;6.85;;
23432;SDS011;41331;45.412;10.992;2023-02-28T17:00:31;11.70;;;7.50;;
23432;SDS011;41331;45.412;10.992;2023-02-28T17:02:59;11.15;;;7.00;;
23432;SDS011;41331;45.412;10.992;2023-02-28T17:05:34;15.88;;;7.85;;
23432;SDS011;41331;45.412;10.992;2023-02-28T17:08:05;15.43;;;7.35;;
23432;SDS011;41331;45.412;10.992;2023-02-28T17:10:32;17.40;;;8.40;;
23432;SDS011;41331;45.412;10.992;2023-02-28T17:13:00;16.20;;;7.53;;
23432;SDS011;41331;45.412;10.992;2023-02-28T17:15:40;12.65;;;7.70;;
23432;SDS011;41331;45.412;10.992;2023-02-28T17:18:13;14.65;;;7.85;;
23432;SDS011;41331;45.412;10.992;2023-02-28T17:20:44;15.32;;;8.43;;
23432;SDS011;41331;45.412;10.992;2023-02-28T17:23:13;14.60;;;8.32;;
23432;SDS011;41331;45.412;10.992;2023-02-28T17:25:40;15.95;;;8.40;;
23432;SDS011;41331;45.412;10.992;2023-02-28T17:28:08;16.67;;;8.75;;
23432;SDS011;41331;45.412;10.992;2023-02-28T17:30:36;20.10;;;8.48;;
23432;SDS011;41331;45.412;10.992;2023-02-28T17:33:03;19.90;;;8.00;;